Time;durP1;ratioP1;P1;durP2;ratioP2;P2;SDS_P1;SDS_P2;PMS_P1;PMS_P2;Temp;Humidity;BMP_temperature;BMP_pressure;BME280_temperature;BME280_humidity;BME280_pressure;Samples;Min_cycle;Max_cycle;Signal;HPM_P1;HPM_P2
2021/01/02 00:01:37;;;;;;;3.97;1.10;;;20.00;22.50;;;;;;5090370;28;20081;-57
2021/01/02 00:04:19;;;;;;;1.35;1.00;;;20.00;22.80;;;;;;5078143;28;20055;-58
2021/01/02 00:07:02;;;;;;;3.30;1.92;;;19.90;22.90;;;;;;5091029;28;20552;-60
2021/01/02 00:09:31;;;;;;;3.50;1.48;;;19.80;23.10;;;;;;5090599;28;20472;-56
2021/01/02 00:12:03;;;;;;;5.57;1.60;;;19.70;23.30;;;;;;5079073;28;20039;-61
2021/01/02 00:15:03;;;;;;;5.82;1.88;;;19.60;23.50;;;;;;5082635;28;20107;-59
2021/01/02 00:18:08;;;;;;;2.20;1.10;;;19.50;23.50;;;;;;5054921;28;20553;-59
2021/01/02 00:20:55;;;;;;;3.38;1.00;;;19.50;23.50;;;;;;5090435;28;20166;-60
2021/01/02 00:23:40;;;;;;;1.60;0.75;;;19.30;23.40;;;;;;5087732;28;20392;-58
2021/01/02 00:26:33;;;;;;;3.20;1.00;;;19.30;23.50;;;;;;5090256;28;20436;-59
2021/01/02 00:29:03;;;;;;;4.55;1.02;;;19.20;24.00;;;;;;5069794;28;20027;-59
2021/01/02 00:31:47;;;;;;;1.98;1.20;;;19.10;24.60;;;;;;5089307;28;20437;-58
2021/01/02 00:34:43;;;;;;;3.20;1.10;;;19.00;24.50;;;;;;5106186;28;20115;-60
2021/01/02 00:37:29;;;;;;;4.30;1.98;;;18.90;24.50;;;;;;5088243;28;20119;-61
2021/01/02 00:40:18;;;;;;;4.50;1.92;;;18.80;24.80;;;;;;5088425;28;20383;-60
2021/01/02 00:42:48;;;;;;;6.00;2.00;;;18.70;25.30;;;;;;5088546;28;20032;-55
2021/01/02 00:45:21;;;;;;;5.03;2.25;;;18.60;25.80;;;;;;5090142;28;20134;-57
2021/01/02 00:47:51;;;;;;;5.93;2.30;;;18.40;26.50;;;;;;5069673;28;20032;-57
2021/01/02 00:50:20;;;;;;;6.32;2.30;;;18.30;27.00;;;;;;5070677;28;20027;-59
2021/01/02 00:52:47;;;;;;;6.20;3.10;;;18.20;26.70;;;;;;5084274;28;20032;-58
2021/01/02 00:55:25;;;;;;;;;;;18.00;26.80;;;;;;5085895;28;20023;-59
2021/01/02 00:58:04;;;;;;;;;;;17.90;27.20;;;;;;5084405;28;20369;-57
2021/01/02 01:00:37;;;;;;;12.52;4.20;;;17.70;27.50;;;;;;5084933;28;20279;-59
2021/01/02 01:03:29;;;;;;;11.65;5.07;;;17.50;28.80;;;;;;5082222;28;20020;-58
2021/01/02 01:05:58;;;;;;;11.27;4.20;;;17.30;29.90;;;;;;5080186;28;20402;-57
2021/01/02 01:08:25;;;;;;;10.48;4.53;;;17.20;29.70;;;;;;5084341;28;20787;-59
2021/01/02 01:10:53;;;;;;;11.75;3.88;;;17.10;29.80;;;;;;5080989;28;20024;-60
2021/01/02 01:13:24;;;;;;;13.70;3.70;;;17.00;30.10;;;;;;5082783;28;20040;-60
2021/01/02 01:15:51;;;;;;;6.65;3.45;;;16.90;31.20;;;;;;5086117;28;20023;-56
2021/01/02 01:18:18;;;;;;;9.30;3.22;;;16.80;31.50;;;;;;5079658;28;20066;-59
2021/01/02 01:20:45;;;;;;;;;;;16.70;31.90;;;;;;5082643;28;20020;-60
2021/01/02 01:23:11;;;;;;;9.27;3.28;;;16.50;32.10;;;;;;5080973;28;20288;-59
2021/01/02 01:26:03;;;;;;;14.77;3.10;;;16.40;32.10;;;;;;5078826;28;20546;-58
2021/01/02 01:28:32;;;;;;;8.90;2.95;;;16.30;32.30;;;;;;5084301;28;20036;-61
2021/01/02 01:31:01;;;;;;;5.20;2.92;;;16.20;32.10;;;;;;5085346;28;20521;-61
2021/01/02 01:33:29;;;;;;;7.45;3.38;;;16.10;32.00;;;;;;5076583;28;20037;-64
2021/01/02 01:36:01;;;;;;;7.22;3.45;;;15.90;32.40;;;;;;5084559;28;20441;-60
2021/01/02 01:38:29;;;;;;;12.48;3.60;;;15.80;32.80;;;;;;5084328;28;20024;-63
2021/01/02 01:41:13;;;;;;;8.75;2.88;;;15.70;33.60;;;;;;5084285;28;20025;-58
2021/01/02 01:44:04;;;;;;;12.07;3.30;;;15.60;33.30;;;;;;5082589;28;20476;-61
2021/01/02 01:46:55;;;;;;;18.38;3.90;;;15.50;33.30;;;;;;5082653;28;20385;-60
2021/01/02 01:49:30;;;;;;;15.98;3.67;;;15.40;33.50;;;;;;5105271;28;20095;-59
2021/01/02 01:52:05;;;;;;;11.70;3.60;;;15.30;34.20;;;;;;5103448;28;20026;-59
2021/01/02 01:54:50;;;;;;;16.35;4.03;;;15.20;34.90;;;;;;5105925;28;20028;-61
2021/01/02 01:57:22;;;;;;;19.17;3.95;;;15.10;35.10;;;;;;5106209;28;20105;-59
2021/01/02 02:00:08;;;;;;;10.18;3.88;;;15.00;35.30;;;;;;5103999;28;20563;-60
2021/01/02 02:02:47;;;;;;;13.63;3.70;;;14.90;35.40;;;;;;5104677;28;20055;-60
2021/01/02 02:05:24;;;;;;;10.65;4.22;;;14.80;35.50;;;;;;5104783;28;20131;-60
2021/01/02 02:08:04;;;;;;;;;;;14.70;35.30;;;;;;5106605;28;20077;-60
2021/01/02 02:10:36;;;;;;;11.63;4.60;;;14.60;35.40;;;;;;5103204;28;19908;-60
2021/01/02 02:13:20;;;;;;;14.30;4.97;;;14.60;35.90;;;;;;5107736;28;20053;-60
2021/01/02 02:15:48;;;;;;;16.92;4.72;;;14.50;36.10;;;;;;5102752;28;20135;-65
2021/01/02 02:18:28;;;;;;;22.55;5.43;;;14.40;36.00;;;;;;5104879;28;20114;-60
2021/01/02 02:20:59;;;;;;;22.02;5.38;;;14.30;36.10;;;;;;5106087;28;20058;-57
2021/01/02 02:23:50;;;;;;;24.67;6.10;;;14.30;36.10;;;;;;5104933;28;20028;-60
2021/01/02 02:26:27;;;;;;;18.65;6.57;;;14.20;36.20;;;;;;5102440;28;21490;-56
2021/01/02 02:28:53;;;;;;;20.55;6.57;;;14.20;36.80;;;;;;5103476;28;20087;-59
2021/01/02 02:31:23;;;;;;;;;;;14.10;37.00;;;;;;5104955;28;20028;-59
2021/01/02 02:33:56;;;;;;;18.55;7.55;;;14.10;37.20;;;;;;5105134;28;20384;-61
2021/01/02 02:36:24;;;;;;;26.30;7.97;;;14.00;36.90;;;;;;5085525;28;20640;-58
2021/01/02 02:38:53;;;;;;;25.55;8.02;;;14.00;37.20;;;;;;5103486;28;20028;-61
2021/01/02 02:41:24;;;;;;;35.10;10.40;;;13.90;37.20;;;;;;5101706;28;20020;-58
2021/01/02 02:43:54;;;;;;;34.90;10.60;;;13.90;37.40;;;;;;5104691;28;20020;-58
2021/01/02 02:46:22;;;;;;;36.92;10.95;;;13.90;37.50;;;;;;5104163;28;20115;-58
2021/01/02 02:48:54;;;;;;;43.80;13.07;;;13.90;37.70;;;;;;5110464;28;20047;-61
2021/01/02 02:51:24;;;;;;;46.88;15.95;;;13.90;38.30;;;;;;5091241;27;20027;-58
2021/01/02 02:53:51;;;;;;;49.33;16.48;;;13.80;38.10;;;;;;5105290;28;20039;-60
2021/01/02 02:56:18;;;;;;;53.42;16.90;;;13.70;37.70;;;;;;5091626;28;20107;-60
2021/01/02 02:58:45;;;;;;;55.42;18.58;;;13.70;37.90;;;;;;5095426;27;20421;-61
2021/01/02 03:01:12;;;;;;;57.97;19.70;;;13.70;38.50;;;;;;5109144;28;20028;-60
2021/01/02 03:03:38;;;;;;;54.35;20.70;;;13.60;38.60;;;;;;5110643;27;20423;-58
2021/01/02 03:06:05;;;;;;;62.45;22.67;;;13.60;38.50;;;;;;5110723;27;20031;-60
2021/01/02 03:08:32;;;;;;;67.30;24.95;;;13.50;38.00;;;;;;5105611;27;20039;-58
2021/01/02 03:11:02;;;;;;;69.03;24.10;;;13.50;38.20;;;;;;5106696;28;20055;-58
2021/01/02 03:13:40;;;;;;;66.38;23.02;;;13.50;38.10;;;;;;5091944;28;20032;-59
2021/01/02 03:16:07;;;;;;;65.65;23.73;;;13.50;38.50;;;;;;5109964;28;20031;-60
2021/01/02 03:18:34;;;;;;;62.72;23.83;;;13.40;39.00;;;;;;5106852;28;20035;-59
2021/01/02 03:21:00;;;;;;;;;;;13.40;39.00;;;;;;5093003;28;20123;-61
2021/01/02 03:23:27;;;;;;;75.22;25.83;;;13.30;38.90;;;;;;5107396;28;20348;-57
2021/01/02 03:26:02;;;;;;;75.63;27.55;;;13.20;38.50;;;;;;5112100;27;20074;-60
2021/01/02 03:28:29;;;;;;;88.65;27.58;;;13.20;38.90;;;;;;5091349;28;20026;-60
2021/01/02 03:30:55;;;;;;;84.72;28.05;;;13.20;39.90;;;;;;5093159;28;20027;-59
2021/01/02 03:33:23;;;;;;;;;;;13.20;40.00;;;;;;5090048;28;20063;-59
2021/01/02 03:35:57;;;;;;;78.70;27.77;;;13.20;39.50;;;;;;5110354;27;19915;-59
2021/01/02 03:38:24;;;;;;;84.38;30.27;;;13.10;39.60;;;;;;5107590;28;20088;-59
2021/01/02 03:40:50;;;;;;;83.28;29.10;;;13.10;39.60;;;;;;5106972;28;20078;-58
2021/01/02 03:43:17;;;;;;;;;;;13.10;40.40;;;;;;5107074;28;20384;-60
2021/01/02 03:45:45;;;;;;;82.07;30.63;;;13.00;41.00;;;;;;5108823;27;19911;-58
2021/01/02 03:48:12;;;;;;;69.82;27.92;;;13.00;41.00;;;;;;5099916;28;20139;-57
2021/01/02 03:50:38;;;;;;;81.55;32.05;;;13.00;41.00;;;;;;5085806;28;20033;-60
2021/01/02 03:53:05;;;;;;;;;;;12.90;40.40;;;;;;5092706;28;20484;-60
2021/01/02 03:55:32;;;;;;;75.88;29.00;;;12.80;39.80;;;;;;5092896;28;19916;-60
2021/01/02 03:57:59;;;;;;;106.78;29.73;;;12.70;40.10;;;;;;5072503;28;20028;-54
2021/01/02 04:00:25;;;;;;;;;;;12.80;41.30;;;;;;5056874;28;20024;-55
2021/01/02 04:02:51;;;;;;;77.00;27.90;;;12.80;41.20;;;;;;5091909;28;19951;-60
2021/01/02 04:05:18;;;;;;;84.82;28.90;;;12.80;41.00;;;;;;5089281;28;20527;-60
2021/01/02 04:07:45;;;;;;;90.35;31.40;;;12.70;40.80;;;;;;5090467;28;20032;-60
2021/01/02 04:10:11;;;;;;;;;;;12.60;40.80;;;;;;5072297;28;20028;-62
2021/01/02 04:12:38;;;;;;;98.03;29.98;;;12.60;41.60;;;;;;5073460;28;19995;-60
2021/01/02 04:15:04;;;;;;;;;;;12.70;42.10;;;;;;5091041;28;20037;-60
2021/01/02 04:17:31;;;;;;;106.80;41.25;;;12.60;42.10;;;;;;5072210;28;19908;-60
2021/01/02 04:19:57;;;;;;;;;;;12.50;40.70;;;;;;5092627;28;20024;-57
2021/01/02 04:22:23;;;;;;;101.97;34.65;;;12.40;40.90;;;;;;5072635;28;19939;-59
2021/01/02 04:24:50;;;;;;;105.88;33.40;;;12.40;40.90;;;;;;5073557;28;20028;-61
2021/01/02 04:27:16;;;;;;;;;;;12.40;41.20;;;;;;5086656;28;20030;-60
2021/01/02 04:29:43;;;;;;;106.32;35.83;;;12.50;42.00;;;;;;5092537;28;20587;-61
2021/01/02 04:32:10;;;;;;;103.95;34.60;;;12.40;42.20;;;;;;5074055;28;20051;-60
2021/01/02 04:34:36;;;;;;;95.43;31.85;;;12.40;42.20;;;;;;5090999;28;20017;-60
2021/01/02 04:37:03;;;;;;;;;;;12.30;41.90;;;;;;5091039;28;20107;-55
2021/01/02 04:39:29;;;;;;;94.05;33.40;;;12.30;41.70;;;;;;5087879;28;19912;-59
2021/01/02 04:41:56;;;;;;;;;;;12.20;41.60;;;;;;5090128;28;20054;-58
2021/01/02 04:44:24;;;;;;;108.03;31.77;;;12.20;41.60;;;;;;5090471;28;20033;-60
2021/01/02 04:46:54;;;;;;;100.35;33.22;;;12.10;41.70;;;;;;5090512;28;20024;-59
2021/01/02 04:49:21;;;;;;;101.72;32.72;;;12.20;42.30;;;;;;5094250;28;20504;-58
2021/01/02 04:51:48;;;;;;;108.65;32.17;;;12.20;42.50;;;;;;5114893;27;20483;-59
2021/01/02 04:54:20;;;;;;;102.35;35.13;;;12.20;43.30;;;;;;5096510;27;20543;-60
2021/01/02 04:56:46;;;;;;;106.38;32.10;;;12.20;42.90;;;;;;5093273;27;20020;-60
2021/01/02 04:59:13;;;;;;;89.45;30.05;;;12.20;42.60;;;;;;5120481;27;20431;-59
2021/01/02 05:01:41;;;;;;;106.72;33.28;;;12.10;42.90;;;;;;5113381;27;20035;-57
2021/01/02 05:04:08;;;;;;;110.75;32.35;;;12.10;43.10;;;;;;5097192;28;20028;-59
2021/01/02 05:06:35;;;;;;;109.82;33.42;;;12.10;43.10;;;;;;5111780;27;20061;-59
2021/01/02 05:09:05;;;;;;;119.70;33.25;;;12.00;42.90;;;;;;5114672;27;20048;-61
2021/01/02 05:11:36;;;;;;;122.57;34.55;;;12.00;42.80;;;;;;5112218;27;20020;-58
2021/01/02 05:14:04;;;;;;;106.20;33.95;;;12.00;43.10;;;;;;5114547;27;20118;-59
2021/01/02 05:16:35;;;;;;;104.18;34.35;;;12.00;43.50;;;;;;5112282;27;20023;-60
2021/01/02 05:19:07;;;;;;;112.32;35.22;;;12.00;44.00;;;;;;5111292;27;20110;-61
2021/01/02 05:21:36;;;;;;;116.25;34.58;;;12.00;44.10;;;;;;5119324;27;20472;-59
2021/01/02 05:24:08;;;;;;;111.53;35.28;;;12.00;44.20;;;;;;5116770;27;20054;-57
2021/01/02 05:26:40;;;;;;;113.22;34.47;;;12.00;44.20;;;;;;5115832;27;20050;-54
2021/01/02 05:29:11;;;;;;;113.72;34.03;;;11.90;44.50;;;;;;5115278;27;20031;-59
2021/01/02 05:31:42;;;;;;;109.32;35.47;;;11.80;44.30;;;;;;5116826;27;20051;-62
2021/01/02 05:34:11;;;;;;;105.63;34.08;;;11.80;44.40;;;;;;5093697;28;20037;-57
2021/01/02 05:36:38;;;;;;;110.10;34.45;;;11.70;44.90;;;;;;5078247;28;20047;-57
2021/01/02 05:39:06;;;;;;;116.03;33.67;;;11.70;44.30;;;;;;5112358;27;20034;-60
2021/01/02 05:41:55;;;;;;;111.22;34.70;;;11.70;44.60;;;;;;5114242;27;20027;-61
2021/01/02 05:44:33;;;;;;;115.60;35.58;;;11.60;45.40;;;;;;5098695;27;20020;-58
2021/01/02 05:47:01;;;;;;;120.95;33.63;;;11.60;45.30;;;;;;5116755;27;20030;-58
2021/01/02 05:49:39;;;;;;;105.25;34.08;;;11.60;45.20;;;;;;5084582;28;20097;-60
2021/01/02 05:52:11;;;;;;;112.25;34.22;;;11.60;45.00;;;;;;5068364;28;20048;-59
2021/01/02 05:54:42;;;;;;;103.05;35.55;;;11.60;45.00;;;;;;5062421;28;20024;-62
2021/01/02 05:57:08;;;;;;;104.78;35.20;;;11.60;45.00;;;;;;5062562;28;20401;-61
2021/01/02 05:59:36;;;;;;;;;;;11.60;45.20;;;;;;5084499;28;20035;-59
2021/01/02 06:02:29;;;;;;;117.63;32.60;;;11.60;45.40;;;;;;5082385;28;19915;-60
2021/01/02 06:05:01;;;;;;;101.10;33.85;;;11.50;45.30;;;;;;5068343;28;20040;-59
2021/01/02 06:07:31;;;;;;;109.97;33.35;;;11.40;44.90;;;;;;5061273;28;20020;-58
2021/01/02 06:09:59;;;;;;;107.00;35.65;;;11.30;44.70;;;;;;5080435;28;20020;-58
2021/01/02 06:12:28;;;;;;;138.80;42.65;;;11.30;45.00;;;;;;5063502;28;20052;-60
2021/01/02 06:15:03;;;;;;;128.10;45.50;;;11.30;45.00;;;;;;5073627;28;20489;-59
2021/01/02 06:17:39;;;;;;;142.50;46.63;;;11.30;45.20;;;;;;5089533;28;20031;-64
2021/01/02 06:20:08;;;;;;;163.70;48.45;;;11.30;45.40;;;;;;5084128;28;20040;-60
2021/01/02 06:22:40;;;;;;;146.85;46.25;;;11.40;45.50;;;;;;5082548;28;20021;-60
2021/01/02 06:25:12;;;;;;;129.18;44.80;;;11.40;45.70;;;;;;5067634;28;20055;-59
2021/01/02 06:27:44;;;;;;;134.70;47.33;;;11.40;45.60;;;;;;5080729;28;20024;-61
2021/01/02 06:30:16;;;;;;;144.00;48.17;;;11.40;45.90;;;;;;5081164;28;20028;-57
2021/01/02 06:32:49;;;;;;;132.30;47.33;;;11.30;47.00;;;;;;5065431;28;20036;-60
2021/01/02 06:35:16;;;;;;;128.73;45.13;;;11.30;46.90;;;;;;5086923;28;20036;-58
2021/01/02 06:37:49;;;;;;;161.38;49.58;;;11.30;46.80;;;;;;5085203;28;20476;-60
2021/01/02 06:40:30;;;;;;;244.40;52.00;;;11.30;46.30;;;;;;5083334;28;20027;-61
2021/01/02 06:42:59;;;;;;;138.98;46.55;;;11.30;46.60;;;;;;5086431;28;20473;-59
2021/01/02 06:45:38;;;;;;;128.88;47.45;;;11.20;47.20;;;;;;5085838;28;20087;-61
2021/01/02 06:48:17;;;;;;;130.20;44.50;;;11.10;47.00;;;;;;5082886;28;20174;-60
2021/01/02 06:50:50;;;;;;;130.23;46.05;;;11.10;46.80;;;;;;5084468;28;20082;-58
2021/01/02 06:53:27;;;;;;;137.35;46.33;;;11.10;47.10;;;;;;5080920;28;20272;-58
2021/01/02 06:56:29;;;;;;;124.40;44.65;;;11.10;47.10;;;;;;5081369;28;20064;-60
2021/01/02 06:58:56;;;;;;;135.65;47.15;;;11.10;47.00;;;;;;5071248;28;20075;-60
2021/01/02 07:01:22;;;;;;;;;;;11.10;47.40;;;;;;5079864;28;20079;-59
2021/01/02 07:03:50;;;;;;;132.38;46.92;;;11.00;47.80;;;;;;5062269;28;19963;-58
2021/01/02 07:06:34;;;;;;;138.88;48.08;;;11.00;48.20;;;;;;5080071;28;20166;-60
2021/01/02 07:09:19;;;;;;;126.57;46.45;;;11.00;47.80;;;;;;5079783;28;20070;-61
2021/01/02 07:11:50;;;;;;;123.18;45.80;;;11.00;47.40;;;;;;5066079;28;20098;-60
2021/01/02 07:14:24;;;;;;;138.05;47.72;;;10.80;47.50;;;;;;5080447;28;20083;-61
2021/01/02 07:16:56;;;;;;;128.00;47.70;;;10.70;47.70;;;;;;5078765;28;20159;-60
2021/01/02 07:19:34;;;;;;;129.48;45.22;;;10.70;47.60;;;;;;5065006;28;20079;-60
2021/01/02 07:22:10;;;;;;;125.75;47.08;;;10.80;48.50;;;;;;5084144;28;20071;-60
2021/01/02 07:25:00;;;;;;;114.78;46.28;;;10.70;48.40;;;;;;5085457;28;20078;-60
2021/01/02 07:27:32;;;;;;;114.75;44.63;;;10.80;48.30;;;;;;5082003;28;20063;-59
2021/01/02 07:30:04;;;;;;;130.35;46.65;;;10.80;48.50;;;;;;5077756;28;20079;-58
2021/01/02 07:32:33;;;;;;;120.57;43.75;;;10.80;48.50;;;;;;5078718;28;20100;-59
2021/01/02 07:35:05;;;;;;;116.18;44.60;;;10.70;48.60;;;;;;5069434;28;20120;-60
2021/01/02 07:37:34;;;;;;;120.38;44.70;;;10.70;48.90;;;;;;5085540;28;20122;-61
2021/01/02 07:40:12;;;;;;;132.50;45.95;;;10.70;48.90;;;;;;5085759;28;20087;-59
2021/01/02 07:42:43;;;;;;;121.13;43.83;;;10.60;48.80;;;;;;5087395;28;20477;-61
2021/01/02 07:45:15;;;;;;;118.18;45.83;;;10.60;48.60;;;;;;5088300;28;20095;-58
2021/01/02 07:47:54;;;;;;;131.88;47.05;;;10.60;48.40;;;;;;5089666;28;20182;-59
2021/01/02 07:50:22;;;;;;;130.85;49.25;;;10.50;49.00;;;;;;5103462;28;20066;-60
2021/01/02 07:52:57;;;;;;;134.00;54.03;;;10.50;49.50;;;;;;5103173;28;20095;-60
2021/01/02 07:55:24;;;;;;;132.65;48.70;;;10.50;49.20;;;;;;5107653;28;20518;-59
2021/01/02 07:57:52;;;;;;;134.15;53.35;;;10.50;49.30;;;;;;5105811;28;20557;-59
2021/01/02 08:00:19;;;;;;;122.88;51.35;;;10.50;49.40;;;;;;5088173;28;20213;-55
2021/01/02 08:02:46;;;;;;;140.27;51.95;;;10.50;49.20;;;;;;5104860;28;20158;-61
2021/01/02 08:05:12;;;;;;;;;;;10.40;48.90;;;;;;5107401;28;20100;-60
2021/01/02 08:07:39;;;;;;;155.95;54.13;;;10.40;49.00;;;;;;5103033;28;20008;-61
2021/01/02 08:10:10;;;;;;;141.40;56.70;;;10.40;49.60;;;;;;5105342;28;20086;-58
2021/01/02 08:12:41;;;;;;;146.32;56.00;;;10.40;49.70;;;;;;5106303;28;20114;-58
2021/01/02 08:15:08;;;;;;;146.80;56.17;;;10.40;49.30;;;;;;5107566;28;20076;-58
2021/01/02 08:17:41;;;;;;;136.95;56.70;;;10.40;49.30;;;;;;5105587;28;20095;-61
2021/01/02 08:20:10;;;;;;;145.77;57.80;;;10.30;49.50;;;;;;5087492;28;20139;-60
2021/01/02 08:22:38;;;;;;;159.00;59.53;;;10.30;49.60;;;;;;5109819;28;20075;-60
2021/01/02 08:25:16;;;;;;;169.57;68.53;;;10.30;50.30;;;;;;5106595;28;20093;-60
2021/01/02 08:27:48;;;;;;;168.48;68.72;;;10.30;50.60;;;;;;5102394;28;20403;-60
2021/01/02 08:30:15;;;;;;;188.48;76.97;;;10.30;50.10;;;;;;5090612;28;20071;-57
2021/01/02 08:32:56;;;;;;;189.38;81.35;;;10.20;50.00;;;;;;5084558;28;20091;-58
2021/01/02 08:35:39;;;;;;;205.63;79.20;;;10.10;49.80;;;;;;5105494;28;20075;-59
2021/01/02 08:38:09;;;;;;;175.32;78.15;;;10.10;49.00;;;;;;5099892;28;20087;-61
2021/01/02 08:40:48;;;;;;;170.07;71.40;;;10.10;49.40;;;;;;5105892;28;20091;-59
2021/01/02 08:43:27;;;;;;;190.57;75.57;;;10.20;49.40;;;;;;5104163;28;21595;-60
2021/01/02 08:46:03;;;;;;;188.48;76.85;;;10.10;49.80;;;;;;5104921;28;20102;-61
2021/01/02 08:48:31;;;;;;;167.40;74.38;;;10.10;49.60;;;;;;5117386;27;20189;-59
2021/01/02 08:50:58;;;;;;;164.55;75.22;;;10.10;49.10;;;;;;5084033;28;20076;-58
2021/01/02 08:53:24;;;;;;;161.55;70.00;;;10.00;49.60;;;;;;5105710;28;20147;-59
2021/01/02 08:55:51;;;;;;;170.40;74.07;;;10.00;49.40;;;;;;5104377;28;20098;-58
2021/01/02 08:58:29;;;;;;;;;;;10.00;49.40;;;;;;5103000;28;20075;-60
2021/01/02 09:00:57;;;;;;;161.55;68.22;;;10.00;49.70;;;;;;5100776;28;19959;-57
2021/01/02 09:03:24;;;;;;;152.23;68.18;;;9.90;49.90;;;;;;5106745;28;20541;-58
2021/01/02 09:05:51;;;;;;;161.75;68.18;;;9.90;49.80;;;;;;5106514;28;20080;-60
2021/01/02 09:08:18;;;;;;;;;;;9.80;49.50;;;;;;5101163;28;20072;-57
2021/01/02 09:10:46;;;;;;;155.35;63.65;;;9.70;50.10;;;;;;5083930;28;21200;-58
2021/01/02 09:13:25;;;;;;;151.40;59.45;;;9.70;49.60;;;;;;5100696;28;20095;-58
2021/01/02 09:16:15;;;;;;;139.38;53.80;;;9.60;49.50;;;;;;5085950;28;20153;-60
2021/01/02 09:18:43;;;;;;;135.02;52.17;;;9.60;49.60;;;;;;5101440;28;20073;-60
2021/01/02 09:21:10;;;;;;;117.10;48.90;;;9.60;49.20;;;;;;5104580;28;20080;-57
2021/01/02 09:23:41;;;;;;;122.47;49.20;;;9.60;49.30;;;;;;5106015;28;20071;-59
2021/01/02 09:26:36;;;;;;;111.20;44.67;;;9.70;49.30;;;;;;5103788;28;20083;-58
2021/01/02 09:29:14;;;;;;;99.30;41.42;;;9.60;49.10;;;;;;5101442;28;20068;-59
2021/01/02 09:31:41;;;;;;;101.00;42.13;;;9.70;48.60;;;;;;5103542;28;20101;-61
2021/01/02 09:34:08;;;;;;;115.45;42.28;;;9.70;48.60;;;;;;5108483;28;20067;-60
2021/01/02 09:36:35;;;;;;;104.68;40.00;;;9.60;49.00;;;;;;5099999;28;20071;-59
2021/01/02 09:39:02;;;;;;;;;;;9.50;48.90;;;;;;5103137;28;20074;-58
2021/01/02 09:41:29;;;;;;;115.85;44.35;;;9.50;49.40;;;;;;5104578;28;19960;-58
2021/01/02 09:43:59;;;;;;;108.40;41.65;;;9.50;48.70;;;;;;5086200;28;20071;-58
2021/01/02 09:46:28;;;;;;;107.00;42.58;;;9.60;49.00;;;;;;5106371;28;20166;-58
2021/01/02 09:48:57;;;;;;;96.90;44.85;;;9.40;48.90;;;;;;5101115;28;20559;-60
2021/01/02 09:51:24;;;;;;;107.50;44.50;;;9.40;49.00;;;;;;5091585;28;20152;-60
2021/01/02 09:53:53;;;;;;;108.13;46.10;;;9.50;48.90;;;;;;5101432;28;20078;-58
2021/01/02 09:56:20;;;;;;;108.32;45.88;;;9.60;48.80;;;;;;5104929;28;20149;-59
2021/01/02 09:58:46;;;;;;;;;;;9.60;48.80;;;;;;5104131;28;20071;-58
2021/01/02 10:01:15;;;;;;;110.97;44.70;;;9.40;49.60;;;;;;5105828;28;19956;-59
2021/01/02 10:03:43;;;;;;;106.65;40.30;;;9.40;49.70;;;;;;5103439;28;20124;-57
2021/01/02 10:06:12;;;;;;;98.65;39.70;;;9.40;49.20;;;;;;5100966;28;20070;-60
2021/01/02 10:08:39;;;;;;;93.95;36.92;;;9.30;49.00;;;;;;5104063;28;20067;-58
2021/01/02 10:11:06;;;;;;;96.10;36.22;;;9.30;49.50;;;;;;5087062;28;20330;-59
2021/01/02 10:13:33;;;;;;;93.88;40.90;;;9.20;49.60;;;;;;5103325;28;20453;-60
2021/01/02 10:15:59;;;;;;;98.68;39.80;;;9.20;49.80;;;;;;5100152;28;20081;-57
2021/01/02 10:18:25;;;;;;;;;;;9.20;49.80;;;;;;5107646;28;20094;-61
2021/01/02 10:20:53;;;;;;;106.45;43.83;;;9.10;50.50;;;;;;5088333;28;20036;-60
2021/01/02 10:23:20;;;;;;;106.43;43.33;;;9.20;50.80;;;;;;5102615;28;20090;-59
2021/01/02 10:25:46;;;;;;;;;;;9.20;50.90;;;;;;5102169;28;20112;-60
2021/01/02 10:28:12;;;;;;;97.97;42.47;;;9.20;50.70;;;;;;5083530;28;19954;-55
2021/01/02 10:30:39;;;;;;;;;;;9.30;50.80;;;;;;5096979;28;20070;-59
2021/01/02 10:33:05;;;;;;;114.70;43.63;;;9.20;51.00;;;;;;5104419;28;20080;-59
2021/01/02 10:35:33;;;;;;;110.63;43.58;;;9.30;51.10;;;;;;5099335;28;20124;-57
2021/01/02 10:37:59;;;;;;;107.63;42.58;;;9.20;51.90;;;;;;5101721;28;20147;-55
2021/01/02 10:40:25;;;;;;;;;;;9.10;51.70;;;;;;5090614;28;20103;-57
2021/01/02 10:42:52;;;;;;;104.15;42.20;;;9.20;51.50;;;;;;5104876;28;19958;-61
2021/01/02 10:45:19;;;;;;;92.40;43.00;;;9.20;51.10;;;;;;5103930;28;20075;-59
2021/01/02 10:47:47;;;;;;;103.07;41.25;;;9.10;51.00;;;;;;5101839;28;20114;-63
2021/01/02 10:50:14;;;;;;;98.88;41.60;;;9.10;50.90;;;;;;5103260;28;20157;-57
2021/01/02 10:52:40;;;;;;;101.47;40.65;;;9.10;50.90;;;;;;5085373;28;20124;-57
2021/01/02 10:55:07;;;;;;;;;;;9.10;50.90;;;;;;5085792;28;20078;-60
2021/01/02 10:57:33;;;;;;;95.53;41.00;;;9.10;51.00;;;;;;5102700;28;20402;-58
2021/01/02 11:00:01;;;;;;;;;;;9.10;51.50;;;;;;5100547;28;20079;-54
2021/01/02 11:02:27;;;;;;;101.70;41.20;;;9.00;51.80;;;;;;5100647;28;20001;-55
2021/01/02 11:04:53;;;;;;;;;;;9.00;52.30;;;;;;5104456;28;20069;-60
2021/01/02 11:07:24;;;;;;;103.88;40.85;;;9.00;52.20;;;;;;5104104;28;20061;-59
2021/01/02 11:09:51;;;;;;;99.40;39.90;;;9.00;52.60;;;;;;5106885;28;20147;-54
2021/01/02 11:12:18;;;;;;;92.25;38.60;;;9.00;52.90;;;;;;5089007;28;20503;-58
2021/01/02 11:14:44;;;;;;;92.45;38.53;;;8.90;52.40;;;;;;5091217;28;20111;-57
2021/01/02 11:17:11;;;;;;;;;;;8.90;52.60;;;;;;5107920;28;20076;-59
2021/01/02 11:19:37;;;;;;;83.10;33.67;;;8.80;52.30;;;;;;5108604;28;19954;-58
2021/01/02 11:22:04;;;;;;;;;;;8.90;52.00;;;;;;5109013;28;20145;-57
2021/01/02 11:24:38;;;;;;;86.45;33.75;;;8.80;51.70;;;;;;5107550;28;19963;-57
2021/01/02 11:27:05;;;;;;;87.82;34.22;;;8.80;51.40;;;;;;5103728;28;20075;-59
2021/01/02 11:29:32;;;;;;;74.68;34.03;;;8.70;51.60;;;;;;5106910;28;20173;-59
2021/01/02 11:32:02;;;;;;;76.75;34.13;;;8.70;51.60;;;;;;5090858;28;20083;-56
2021/01/02 11:34:28;;;;;;;99.22;37.75;;;8.70;52.00;;;;;;5072285;28;20083;-57
2021/01/02 11:37:00;;;;;;;94.15;37.60;;;8.70;52.60;;;;;;5086167;28;20072;-60
2021/01/02 11:39:27;;;;;;;99.80;40.72;;;8.70;52.60;;;;;;5105492;28;20156;-58
2021/01/02 11:41:54;;;;;;;93.88;39.30;;;8.70;52.70;;;;;;5104850;28;20166;-59
2021/01/02 11:44:23;;;;;;;94.68;38.30;;;8.60;53.40;;;;;;5108289;28;20067;-56
2021/01/02 11:46:52;;;;;;;98.00;39.92;;;8.50;53.60;;;;;;5087380;28;20553;-58
2021/01/02 11:49:22;;;;;;;101.15;41.25;;;8.50;54.10;;;;;;5091374;28;20103;-55
2021/01/02 11:51:54;;;;;;;98.65;39.78;;;8.50;53.70;;;;;;5108889;27;20101;-59
2021/01/02 11:54:21;;;;;;;108.25;41.67;;;8.50;53.50;;;;;;5106449;28;20516;-58
2021/01/02 11:56:48;;;;;;;110.10;42.80;;;8.60;53.60;;;;;;5089923;28;20080;-56
2021/01/02 11:59:16;;;;;;;108.68;43.97;;;8.40;54.00;;;;;;5107956;28;20128;-54
2021/01/02 12:01:49;;;;;;;97.15;44.53;;;8.40;54.00;;;;;;5109811;27;20073;-57
2021/01/02 12:04:18;;;;;;;108.75;46.40;;;8.30;53.90;;;;;;5111792;27;20158;-56
2021/01/02 12:06:45;;;;;;;101.80;45.65;;;8.40;53.40;;;;;;5106901;28;20454;-54
2021/01/02 12:09:13;;;;;;;117.10;48.63;;;8.40;53.50;;;;;;5109280;28;20078;-58
2021/01/02 12:11:42;;;;;;;112.18;49.38;;;8.40;53.60;;;;;;5106792;28;20067;-57
2021/01/02 12:14:11;;;;;;;117.75;48.22;;;8.40;53.60;;;;;;5088032;28;20089;-57
2021/01/02 12:16:47;;;;;;;113.55;49.00;;;8.30;54.00;;;;;;5108271;28;20071;-56
2021/01/02 12:19:17;;;;;;;121.27;51.97;;;8.30;53.80;;;;;;5110811;27;20099;-58
2021/01/02 12:21:44;;;;;;;122.75;50.33;;;8.40;53.80;;;;;;5107116;28;20165;-56
2021/01/02 12:24:11;;;;;;;108.20;49.28;;;8.30;54.70;;;;;;5108742;27;20480;-60
2021/01/02 12:26:56;;;;;;;110.15;50.53;;;8.30;54.40;;;;;;5107797;28;20075;-59
2021/01/02 12:29:24;;;;;;;137.80;51.40;;;8.30;54.00;;;;;;5107545;28;20071;-58
2021/01/02 12:31:54;;;;;;;115.68;50.17;;;8.20;53.60;;;;;;5106029;28;20087;-57
2021/01/02 12:34:29;;;;;;;113.50;49.83;;;8.20;53.80;;;;;;5107844;28;20079;-58
2021/01/02 12:36:58;;;;;;;137.55;56.83;;;8.10;53.70;;;;;;5106189;28;20093;-56
2021/01/02 12:39:29;;;;;;;150.40;60.55;;;8.00;53.90;;;;;;5103430;28;20074;-56
2021/01/02 12:41:58;;;;;;;162.57;65.53;;;8.00;54.70;;;;;;5105903;28;20072;-58
2021/01/02 12:44:25;;;;;;;163.80;68.85;;;8.10;54.20;;;;;;5108527;28;20122;-59
2021/01/02 12:46:55;;;;;;;190.27;76.30;;;8.10;53.60;;;;;;5104839;28;20118;-55
2021/01/02 12:49:24;;;;;;;203.70;80.93;;;8.20;53.60;;;;;;5105799;28;20111;-58
2021/01/02 12:51:59;;;;;;;207.38;80.05;;;8.20;53.30;;;;;;5109054;28;20542;-59
2021/01/02 12:54:26;;;;;;;218.13;80.97;;;8.20;52.90;;;;;;5106163;28;20080;-57
2021/01/02 12:56:54;;;;;;;236.93;85.72;;;8.30;52.90;;;;;;5087876;28;20108;-59
2021/01/02 12:59:23;;;;;;;236.80;85.63;;;8.30;52.50;;;;;;5106178;27;20072;-58